createdAt,value
2018-11-22T12:16:06.334Z,29.63
2018-11-22T12:18:37.056Z,29.60
2018-11-22T12:21:04.785Z,29.00
2018-11-22T12:23:33.842Z,28.37
2018-11-22T12:26:02.946Z,28.83
2018-11-22T12:28:32.679Z,30.20
2018-11-22T12:31:08.644Z,29.87
2018-11-22T12:33:38.684Z,28.80
2018-11-22T12:36:13.150Z,30.17
2018-11-22T12:38:43.405Z,29.30
2018-11-22T12:41:12.525Z,29.60
2018-11-22T12:43:42.102Z,29.20
2018-11-22T12:46:11.168Z,30.47
2018-11-22T12:48:40.882Z,30.47
2018-11-22T12:51:10.109Z,29.83
2018-11-22T12:53:39.340Z,28.63
2018-11-22T12:56:08.506Z,29.57
2018-11-22T12:58:37.687Z,28.40
2018-11-22T13:01:06.918Z,29.80
2018-11-22T13:03:36.184Z,30.03
2018-11-22T13:06:06.138Z,30.20
2018-11-22T13:08:35.236Z,29.63
2018-11-22T13:11:04.949Z,30.60
2018-11-22T13:13:34.052Z,29.77
2018-11-22T13:16:03.150Z,28.87
2018-11-22T13:18:36.236Z,28.60
2018-11-22T13:21:05.880Z,30.23
2018-11-22T13:23:34.996Z,29.80
2018-11-22T13:26:04.156Z,30.17
2018-11-22T13:28:33.388Z,30.50
2018-11-22T13:31:02.495Z,30.07
2018-11-22T13:33:31.555Z,30.67
2018-11-22T13:36:00.650Z,30.40
2018-11-22T13:38:29.857Z,31.77
2018-11-22T13:40:58.958Z,30.30
2018-11-22T13:43:28.044Z,32.57
2018-11-22T13:45:57.590Z,32.17
2018-11-22T13:48:26.756Z,32.13
2018-11-22T13:50:55.957Z,32.73
2018-11-22T13:53:25.259Z,31.20
2018-11-22T13:56:01.243Z,31.67
2018-11-22T13:58:30.367Z,33.13
2018-11-22T14:00:59.489Z,32.40
2018-11-22T14:03:28.643Z,32.27
2018-11-22T14:05:57.744Z,31.50
2018-11-22T14:08:26.787Z,32.13
2018-11-22T14:10:58.566Z,33.60
2018-11-22T14:13:25.043Z,31.67
2018-11-22T14:15:54.172Z,32.23
2018-11-22T14:18:23.821Z,32.43
2018-11-22T14:20:52.952Z,33.03
2018-11-22T14:23:22.138Z,31.83
2018-11-22T14:25:51.326Z,32.17
2018-11-22T14:28:20.549Z,32.07
2018-11-22T14:30:49.698Z,31.30
2018-11-22T14:33:18.797Z,32.03
2018-11-22T14:35:47.924Z,33.10
2018-11-22T14:38:17.057Z,32.93
2018-11-22T14:40:46.960Z,33.73
2018-11-22T14:43:16.154Z,34.63
2018-11-22T14:45:45.502Z,34.23
2018-11-22T14:48:14.599Z,33.27
2018-11-22T14:50:47.148Z,34.37
2018-11-22T14:53:20.903Z,33.73
2018-11-22T14:55:50.140Z,34.37
2018-11-22T14:58:19.336Z,34.97
2018-11-22T15:00:48.556Z,34.13
2018-11-22T15:03:18.453Z,34.47
2018-11-22T15:05:47.589Z,34.40
2018-11-22T15:08:16.733Z,35.77
2018-11-22T15:10:45.862Z,34.67
2018-11-22T15:13:15.156Z,34.43
2018-11-22T15:15:44.856Z,33.97
2018-11-22T15:18:13.965Z,33.13
2018-11-22T15:20:43.112Z,32.43
2018-11-22T15:23:12.290Z,34.63
2018-11-22T15:25:42.149Z,34.27
2018-11-22T15:28:11.418Z,31.63
2018-11-22T15:30:40.525Z,32.40
2018-11-22T15:33:09.877Z,34.73
2018-11-22T15:35:39.011Z,33.83
2018-11-22T15:38:08.131Z,33.87
2018-11-22T15:40:37.300Z,34.03
2018-11-22T15:43:06.432Z,33.80
2018-11-22T15:45:35.997Z,34.27
2018-11-22T15:48:04.901Z,34.10
2018-11-22T15:50:34.052Z,34.33
2018-11-22T15:53:03.251Z,32.57
2018-11-22T15:55:32.370Z,33.33
2018-11-22T15:58:02.276Z,35.00
2018-11-22T16:00:32.774Z,32.77
2018-11-22T16:03:02.309Z,34.47
2018-11-22T16:05:32.177Z,34.00
2018-11-22T16:08:01.292Z,33.17
2018-11-22T16:10:32.034Z,33.23
2018-11-22T16:13:08.340Z,32.30
2018-11-22T16:15:44.335Z,33.90
2018-11-22T16:18:13.450Z,33.73
2018-11-22T16:20:43.977Z,34.10
2018-11-22T16:23:13.159Z,34.27
2018-11-22T16:25:42.258Z,31.47
2018-11-22T16:28:11.312Z,31.33
2018-11-22T16:30:41.233Z,31.47
2018-11-22T16:33:10.581Z,33.63
2018-11-22T16:35:39.634Z,33.23
2018-11-22T16:38:09.277Z,33.07
2018-11-22T16:40:38.374Z,32.80
2018-11-22T16:43:07.581Z,34.50
2018-11-22T16:45:37.934Z,33.57
2018-11-22T16:48:09.208Z,34.77
2018-11-22T16:50:39.508Z,34.50
2018-11-22T16:53:08.802Z,32.37
2018-11-22T16:55:37.906Z,31.30
2018-11-22T16:58:07.492Z,32.00
2018-11-22T17:00:37.783Z,30.67
2018-11-22T17:03:10.562Z,30.30
2018-11-22T17:05:40.011Z,31.43
2018-11-22T17:08:09.647Z,31.13
2018-11-22T17:10:39.359Z,31.27
2018-11-22T17:13:08.597Z,31.67
2018-11-22T17:15:39.706Z,32.17
2018-11-22T17:18:09.789Z,32.97
2018-11-22T17:20:38.896Z,34.73
2018-11-22T17:23:08.433Z,35.07
2018-11-22T17:25:38.704Z,34.37
2018-11-22T17:28:08.877Z,36.17
2018-11-22T17:30:41.477Z,38.80
2018-11-22T17:33:10.627Z,36.47
2018-11-22T17:35:40.466Z,32.87
2018-11-22T17:38:10.472Z,34.73
2018-11-22T17:40:43.201Z,36.90
2018-11-22T17:43:12.418Z,35.27
2018-11-22T17:45:43.189Z,34.97
2018-11-22T17:48:13.195Z,36.80
2018-11-22T17:50:43.901Z,35.80
2018-11-22T17:53:13.951Z,35.70
2018-11-22T17:55:43.186Z,39.27
2018-11-22T17:58:13.639Z,44.30
2018-11-22T18:00:57.444Z,41.70
2018-11-22T18:03:26.624Z,41.47
2018-11-22T18:05:55.792Z,42.30
2018-11-22T18:08:25.006Z,41.33
2018-11-22T18:10:54.525Z,42.23
2018-11-22T18:13:23.867Z,40.83
2018-11-22T18:15:57.000Z,41.83
2018-11-22T18:18:26.957Z,41.13
2018-11-22T18:20:56.165Z,44.40
2018-11-22T18:23:25.283Z,42.60
2018-11-22T18:25:54.484Z,43.13
2018-11-22T18:28:24.649Z,45.33
2018-11-22T18:30:53.989Z,44.30
2018-11-22T18:33:23.130Z,44.80
2018-11-22T18:35:52.811Z,43.03
2018-11-22T18:38:22.092Z,42.60
2018-11-22T18:40:51.443Z,40.63
2018-11-22T18:43:20.794Z,42.13
2018-11-22T18:45:50.493Z,42.33
2018-11-22T18:48:20.483Z,45.77
2018-11-22T18:50:50.067Z,45.87
2018-11-22T18:53:19.196Z,47.03
2018-11-22T18:55:48.430Z,44.57
2018-11-22T18:58:17.696Z,43.60
2018-11-22T19:00:48.090Z,41.30
2018-11-22T19:03:18.682Z,44.20
2018-11-22T19:05:48.282Z,42.87
2018-11-22T19:08:17.652Z,40.93
2018-11-22T19:10:47.067Z,42.63
2018-11-22T19:13:17.109Z,43.20
2018-11-22T19:15:47.230Z,41.73
2018-11-22T19:18:17.446Z,42.50
2018-11-22T19:20:47.059Z,41.67
2018-11-22T19:23:16.836Z,42.27
2018-11-22T19:25:45.921Z,41.53
2018-11-22T19:28:15.816Z,42.77
2018-11-22T19:30:46.638Z,42.20
2018-11-22T19:33:17.206Z,41.77
2018-11-22T19:35:48.357Z,40.73
2018-11-22T19:38:17.998Z,44.70
2018-11-22T19:40:47.201Z,45.27
2018-11-22T19:43:16.413Z,47.33
2018-11-22T19:45:47.447Z,47.17
2018-11-22T19:48:16.921Z,46.90
2018-11-22T19:50:46.063Z,47.97
2018-11-22T19:53:16.346Z,44.90
2018-11-22T19:55:45.839Z,45.53
2018-11-22T19:58:16.282Z,44.23
2018-11-22T20:00:45.461Z,46.40
2018-11-22T20:03:15.562Z,46.73
2018-11-22T20:05:45.417Z,47.93
2018-11-22T20:08:17.374Z,48.43
2018-11-22T20:10:47.251Z,49.83
2018-11-22T20:13:17.220Z,49.73
2018-11-22T20:15:46.705Z,48.07
2018-11-22T20:18:15.872Z,50.10
2018-11-22T20:20:49.522Z,51.50
2018-11-22T20:23:17.630Z,51.67
2018-11-22T20:25:43.792Z,47.03
2018-11-22T20:28:13.095Z,47.03
2018-11-22T20:30:43.602Z,44.97
2018-11-22T20:33:12.714Z,45.27
2018-11-22T20:35:41.910Z,57.37
2018-11-22T20:38:11.242Z,64.40
2018-11-22T20:40:40.434Z,57.30
2018-11-22T20:43:09.695Z,55.27
2018-11-22T20:45:40.915Z,52.63
2018-11-22T20:48:08.714Z,59.00
2018-11-22T20:50:38.356Z,57.93
2018-11-22T20:53:07.863Z,51.43
2018-11-22T20:55:38.486Z,47.03
2018-11-22T20:58:07.973Z,45.93
2018-11-22T21:00:38.755Z,45.33
2018-11-22T21:03:08.753Z,43.40
2018-11-22T21:05:38.018Z,43.77
2018-11-22T21:08:07.201Z,41.23
2018-11-22T21:10:36.421Z,44.03
2018-11-22T21:13:05.971Z,43.80
2018-11-22T21:15:39.315Z,43.97
2018-11-22T21:18:09.224Z,43.17
2018-11-22T21:20:40.603Z,40.97
2018-11-22T21:23:10.045Z,40.03
2018-11-22T21:25:39.309Z,42.83
2018-11-22T21:28:15.315Z,42.30
2018-11-22T21:30:45.549Z,40.50
2018-11-22T21:33:15.012Z,39.87
2018-11-22T21:35:44.264Z,41.27
2018-11-22T21:38:13.433Z,41.53
2018-11-22T21:40:42.720Z,42.20
2018-11-22T21:43:11.834Z,42.73
2018-11-22T21:45:40.947Z,38.97
2018-11-22T21:48:10.873Z,40.23
2018-11-22T21:50:39.939Z,40.37
2018-11-22T21:53:09.982Z,41.60
2018-11-22T21:55:39.350Z,39.57
2018-11-22T21:58:08.659Z,37.13
2018-11-22T22:00:39.538Z,38.77
2018-11-22T22:03:10.027Z,39.30
2018-11-22T22:05:40.166Z,36.10
2018-11-22T22:08:09.498Z,37.27
2018-11-22T22:10:38.626Z,36.97
2018-11-22T22:13:07.873Z,36.00
2018-11-22T22:15:37.685Z,40.23
2018-11-22T22:18:08.625Z,39.47
2018-11-22T22:20:38.142Z,40.80
2018-11-22T22:23:13.215Z,40.10
2018-11-22T22:25:36.419Z,39.67
2018-11-22T22:28:05.816Z,43.63
2018-11-22T22:30:35.506Z,42.30
2018-11-22T22:33:05.968Z,41.90
2018-11-22T22:35:35.058Z,42.67
2018-11-22T22:38:05.088Z,41.10
2018-11-22T22:40:34.410Z,45.20
2018-11-22T22:43:03.688Z,42.73
2018-11-22T22:45:33.585Z,41.67
2018-11-22T22:48:03.028Z,41.60
2018-11-22T22:50:33.317Z,42.10
2018-11-22T22:53:02.397Z,41.77
2018-11-22T22:55:31.720Z,43.50
2018-11-22T22:58:00.963Z,43.43
2018-11-22T23:00:50.562Z,41.57
2018-11-22T23:03:19.654Z,41.27
2018-11-22T23:05:49.095Z,43.13
2018-11-22T23:08:18.237Z,41.43
2018-11-22T23:10:47.319Z,43.53
2018-11-22T23:13:16.616Z,43.40
2018-11-22T23:15:45.821Z,43.33
2018-11-22T23:18:15.057Z,41.23
2018-11-22T23:20:44.123Z,43.17
2018-11-22T23:23:13.935Z,41.33
2018-11-22T23:25:43.063Z,43.83
2018-11-22T23:28:12.217Z,43.60
2018-11-22T23:30:41.710Z,43.37
2018-11-22T23:33:18.153Z,42.87
2018-11-22T23:35:47.386Z,41.70
2018-11-22T23:38:16.636Z,45.53
2018-11-22T23:40:45.745Z,45.13
2018-11-22T23:43:15.124Z,45.07
2018-11-22T23:45:44.497Z,42.47
2018-11-22T23:48:13.928Z,43.17
2018-11-22T23:50:43.307Z,42.20
2018-11-22T23:53:18.404Z,39.63
2018-11-22T23:55:47.680Z,41.63
2018-11-22T23:58:17.418Z,40.97
